Seacod — DDPW — position and weather

sailwx.info

Track history (hours):
 
Tides and Currents Weather Stations Pressure Air Temp Water Temp Dewpoint Dewpoint Depression Visibility Wind Speed Wind Dir Waves Ship Positions

Seacod

Last reported at 2015-Mar-28 12:29 UTC. Time now 2015-Mar-29 10:36 UTC.
Position N 59°58' E 027°01'.

Length 188 m; draft 6.5 m.

Type: Ship. MMSI: 218019000.

Date/timePositionNaut miles runAvg speedWind from/ knotsBaromVisibWave heightAir tempDewpointWater temp
2015-Mar-28 12:29N 59°58' E 027°01'9 9.4
2015-Mar-28 11:33N 59°59' E 026°44'5315.2
2015-Mar-28 08:04N 59°47' E 025°00'815.5
2015-Mar-28 07:32N 59°46' E 024°44'3415.4
2015-Mar-28 05:19N 59°36' E 023°40'34615.1
2015-Mar-27 06:29N 55°43' E 015°42'1415.4
2015-Mar-27 05:33N 55°37' E 015°19'1515.4
2015-Mar-27 04:33N 55°29' E 014°56'1515.3
2015-Mar-27 03:33N 55°20' E 014°34'1515.1
2015-Mar-27 02:33N 55°09' E 014°16'1414.5
2015-Mar-27 01:33N 54°58' E 013°59'1515.4
2015-Mar-27 00:33N 54°53' E 013°33'1515.4
2015-Mar-26 23:33N 54°49' E 013°08'1515.1
2015-Mar-26 22:33N 54°44' E 012°43'1514.6
2015-Mar-26 21:33N 54°36' E 012°22'1414.1
2015-Mar-26 20:33N 54°24' E 012°10'1413.8
2015-Mar-26 19:33N 54°25' E 011°46'1414.1
2015-Mar-26 18:33N 54°31' E 011°24'1413.8
2015-Mar-26 17:33N 54°35' E 011°01'1514.7
2015-Mar-26 16:34N 54°33' E 010°36'1313.4
2015-Mar-26 15:33N 54°28' E 010°15'7 6.8
2015-Mar-26 14:33N 54°22' E 010°09'3 2.9
2015-Mar-26 13:33N 54°22' E 010°04'6 5.9
2015-Mar-26 12:33N 54°21' E 009°54'5 4.8
2015-Mar-26 11:33N 54°21' E 009°45'6 6.0
2015-Mar-26 10:33N 54°17' E 009°38'6 6.2
2015-Mar-26 09:31N 54°11' E 009°31'7 6.3
2015-Mar-26 08:28N 54°09' E 009°21'6 6.5
2015-Mar-26 07:33N 54°03' E 009°18'4 4.3
2015-Mar-26 06:33N 53°59' E 009°17'6 6.0
2015-Mar-26 05:33N 53°54' E 009°10'1 1.1
2015-Mar-26 04:33N 53°53' E 009°08'2 1.7
2015-Mar-26 03:26N 53°53' E 009°05'0 0.0
2015-Mar-26 02:32N 53°53' E 009°05'0 0.0
2015-Mar-26 01:32N 53°53' E 009°05'0 0.0
2015-Mar-26 00:32N 53°53' E 009°05'0 0.3
2015-Mar-25 23:33N 53°53' E 009°05'10 9.8
2015-Mar-25 22:33N 53°50' E 008°49'1111.0
2015-Mar-25 21:33N 53°58' E 008°35'1612.8
2015-Mar-25 20:18N 53°59' E 008°07'1013.8
2015-Mar-25 19:33N 53°58' E 007°50'1413.8
2015-Mar-25 18:30N 53°55' E 007°26'4113.6
2015-Mar-25 15:28N 53°44' E 006°18'1313.8
2015-Mar-25 14:34N 53°40' E 005°58'1413.9
2015-Mar-25 13:34N 53°36' E 005°36'1414.1
2015-Mar-25 12:33N 53°31' E 005°13'1514.5
2015-Mar-25 11:33N 53°26' E 004°51'2914.3
2015-Mar-25 09:33N 53°02' E 004°24'1514.9
2015-Mar-25 08:33N 52°49' E 004°12'1514.8
2015-Mar-25 07:33N 52°38' E 003°56'7715.2
2015-Mar-25 02:32N 51°42' E 002°31'1414.2
2015-Mar-25 01:34N 51°31' E 002°17'1312.8
2015-Mar-25 00:34N 51°20' E 002°08'1111.1
2015-Mar-24 23:33N 51°11' E 001°58'1111.3
2015-Mar-24 22:33N 51°04' E 001°43'327 8.8
2015-Mar-23 09:32N 46°24' W 002°32'3114.4
2015-Mar-23 07:22N 46°10' W 001°52'1214.8
2015-Mar-23 06:33N 46°08' W 001°35'1413.7
2015-Mar-23 05:33N 46°07' W 001°15'2 2.2
2015-Mar-23 04:34N 46°09' W 001°15'0 0.0
2015-Mar-23 03:32N 46°09' W 001°15'0 0.0
2015-Mar-23 02:32N 46°09' W 001°15'0 0.0
2015-Mar-23 01:33N 46°09' W 001°15'0 0.0
2015-Mar-23 00:33N 46°09' W 001°15'0 0.0
2015-Mar-22 23:27N 46°09' W 001°15'0 0.0
2015-Mar-22 22:30N 46°09' W 001°15'0 0.0
2015-Mar-22 21:33N 46°09' W 001°15'0 0.0
2015-Mar-22 20:30N 46°09' W 001°15'0 0.0
2015-Mar-22 19:30N 46°09' W 001°15'0 0.0
2015-Mar-22 18:33N 46°09' W 001°15'0 0.0
2015-Mar-22 17:33N 46°09' W 001°15'0 0.0
2015-Mar-22 16:33N 46°09' W 001°15'0 0.0
2015-Mar-22 15:33N 46°09' W 001°15'0 0.0
2015-Mar-22 14:31N 46°09' W 001°15'0 0.0
2015-Mar-22 13:30N 46°09' W 001°15'0 0.0
2015-Mar-22 12:33N 46°09' W 001°15'0 0.0
2015-Mar-22 11:33N 46°09' W 001°15'0 0.0
2015-Mar-22 10:33N 46°09' W 001°15'0 0.0
2015-Mar-22 09:33N 46°09' W 001°15'0 0.0
2015-Mar-22 08:32N 46°09' W 001°15'0 0.0
2015-Mar-22 07:32N 46°09' W 001°15'0 0.0
2015-Mar-22 06:32N 46°09' W 001°15'0 0.0
2015-Mar-22 05:32N 46°09' W 001°15'0 0.0
2015-Mar-22 04:32N 46°09' W 001°15'0 0.0
2015-Mar-22 03:32N 46°09' W 001°15'0 0.0
2015-Mar-22 02:32N 46°09' W 001°15'0 0.0
2015-Mar-22 01:32N 46°09' W 001°15'0 0.0
2015-Mar-22 00:32N 46°09' W 001°15'0 0.0
2015-Mar-21 23:32N 46°09' W 001°15'0 0.0
2015-Mar-21 22:29N 46°09' W 001°15'0 0.0
2015-Mar-21 21:32N 46°09' W 001°15'0 0.0
2015-Mar-21 20:32N 46°09' W 001°15'0 0.0
2015-Mar-21 19:32N 46°09' W 001°15'0 0.0
2015-Mar-21 18:32N 46°09' W 001°15'0 0.0
2015-Mar-21 17:32N 46°09' W 001°15'0 0.0
2015-Mar-21 16:32N 46°09' W 001°15'0 0.0
2015-Mar-21 15:32N 46°09' W 001°15'4 3.9
2015-Mar-21 14:33N 46°06' W 001°16'1 1.2
2015-Mar-21 13:32N 46°05' W 001°17'0 0.0
2015-Mar-21 12:32N 46°05' W 001°17'16 0.3
2015-Mar-19 14:18N 46°08' W 001°40'1114.5
2015-Mar-19 13:32N 46°13' W 001°54'1614.7
2015-Mar-19 12:28N 46°22' W 002°13'4214.1
2015-Mar-19 09:27N 46°44' W 003°06'1813.4
2015-Mar-19 08:08N 46°54' W 003°26'8214.2
2015-Mar-19 02:22N 47°50' W 004°56'7112.3
2015-Mar-18 20:33N 48°53' W 005°45'  
Track history (hours):
 
Tides and Currents Weather Stations Pressure Air Temp Water Temp Dewpoint Dewpoint Depression Visibility Wind Speed Wind Dir Waves Ship Positions

Seacod

Last reported at 2015-Mar-28 12:29 UTC. Time now 2015-Mar-29 10:36 UTC.
Position N 59°58' E 027°01'.

Length 188 m; draft 6.5 m.

Type: Ship. MMSI: 218019000.

Date/timePositionNaut miles runAvg speedWind from/ knotsBaromVisibWave heightAir tempDewpointWater temp
2015-Mar-28 12:29N 59°58' E 027°01'9 9.4
2015-Mar-28 11:33N 59°59' E 026°44'5315.2
2015-Mar-28 08:04N 59°47' E 025°00'815.5
2015-Mar-28 07:32N 59°46' E 024°44'3415.4
2015-Mar-28 05:19N 59°36' E 023°40'34615.1
2015-Mar-27 06:29N 55°43' E 015°42'1415.4
2015-Mar-27 05:33N 55°37' E 015°19'1515.4
2015-Mar-27 04:33N 55°29' E 014°56'1515.3
2015-Mar-27 03:33N 55°20' E 014°34'1515.1
2015-Mar-27 02:33N 55°09' E 014°16'1414.5
2015-Mar-27 01:33N 54°58' E 013°59'1515.4
2015-Mar-27 00:33N 54°53' E 013°33'1515.4
2015-Mar-26 23:33N 54°49' E 013°08'1515.1
2015-Mar-26 22:33N 54°44' E 012°43'1514.6
2015-Mar-26 21:33N 54°36' E 012°22'1414.1
2015-Mar-26 20:33N 54°24' E 012°10'1413.8
2015-Mar-26 19:33N 54°25' E 011°46'1414.1
2015-Mar-26 18:33N 54°31' E 011°24'1413.8
2015-Mar-26 17:33N 54°35' E 011°01'1514.7
2015-Mar-26 16:34N 54°33' E 010°36'1313.4
2015-Mar-26 15:33N 54°28' E 010°15'7 6.8
2015-Mar-26 14:33N 54°22' E 010°09'3 2.9
2015-Mar-26 13:33N 54°22' E 010°04'6 5.9
2015-Mar-26 12:33N 54°21' E 009°54'5 4.8
2015-Mar-26 11:33N 54°21' E 009°45'6 6.0
2015-Mar-26 10:33N 54°17' E 009°38'6 6.2
2015-Mar-26 09:31N 54°11' E 009°31'7 6.3
2015-Mar-26 08:28N 54°09' E 009°21'6 6.5
2015-Mar-26 07:33N 54°03' E 009°18'4 4.3
2015-Mar-26 06:33N 53°59' E 009°17'6 6.0
2015-Mar-26 05:33N 53°54' E 009°10'1 1.1
2015-Mar-26 04:33N 53°53' E 009°08'2 1.7
2015-Mar-26 03:26N 53°53' E 009°05'0 0.0
2015-Mar-26 02:32N 53°53' E 009°05'0 0.0
2015-Mar-26 01:32N 53°53' E 009°05'0 0.0
2015-Mar-26 00:32N 53°53' E 009°05'0 0.3
2015-Mar-25 23:33N 53°53' E 009°05'10 9.8
2015-Mar-25 22:33N 53°50' E 008°49'1111.0
2015-Mar-25 21:33N 53°58' E 008°35'1612.8
2015-Mar-25 20:18N 53°59' E 008°07'1013.8
2015-Mar-25 19:33N 53°58' E 007°50'1413.8
2015-Mar-25 18:30N 53°55' E 007°26'4113.6
2015-Mar-25 15:28N 53°44' E 006°18'1313.8
2015-Mar-25 14:34N 53°40' E 005°58'1413.9
2015-Mar-25 13:34N 53°36' E 005°36'1414.1
2015-Mar-25 12:33N 53°31' E 005°13'1514.5
2015-Mar-25 11:33N 53°26' E 004°51'2914.3
2015-Mar-25 09:33N 53°02' E 004°24'1514.9
2015-Mar-25 08:33N 52°49' E 004°12'1514.8
2015-Mar-25 07:33N 52°38' E 003°56'7715.2
2015-Mar-25 02:32N 51°42' E 002°31'1414.2
2015-Mar-25 01:34N 51°31' E 002°17'1312.8
2015-Mar-25 00:34N 51°20' E 002°08'1111.1
2015-Mar-24 23:33N 51°11' E 001°58'1111.3
2015-Mar-24 22:33N 51°04' E 001°43'327 8.8
2015-Mar-23 09:32N 46°24' W 002°32'3114.4
2015-Mar-23 07:22N 46°10' W 001°52'1214.8
2015-Mar-23 06:33N 46°08' W 001°35'1413.7
2015-Mar-23 05:33N 46°07' W 001°15'2 2.2
2015-Mar-23 04:34N 46°09' W 001°15'0 0.0
2015-Mar-23 03:32N 46°09' W 001°15'0 0.0
2015-Mar-23 02:32N 46°09' W 001°15'0 0.0
2015-Mar-23 01:33N 46°09' W 001°15'0 0.0
2015-Mar-23 00:33N 46°09' W 001°15'0 0.0
2015-Mar-22 23:27N 46°09' W 001°15'0 0.0
2015-Mar-22 22:30N 46°09' W 001°15'0 0.0
2015-Mar-22 21:33N 46°09' W 001°15'0 0.0
2015-Mar-22 20:30N 46°09' W 001°15'0 0.0
2015-Mar-22 19:30N 46°09' W 001°15'0 0.0
2015-Mar-22 18:33N 46°09' W 001°15'0 0.0
2015-Mar-22 17:33N 46°09' W 001°15'0 0.0
2015-Mar-22 16:33N 46°09' W 001°15'0 0.0
2015-Mar-22 15:33N 46°09' W 001°15'0 0.0
2015-Mar-22 14:31N 46°09' W 001°15'0 0.0
2015-Mar-22 13:30N 46°09' W 001°15'0 0.0
2015-Mar-22 12:33N 46°09' W 001°15'0 0.0
2015-Mar-22 11:33N 46°09' W 001°15'0 0.0
2015-Mar-22 10:33N 46°09' W 001°15'0 0.0
2015-Mar-22 09:33N 46°09' W 001°15'0 0.0
2015-Mar-22 08:32N 46°09' W 001°15'0 0.0
2015-Mar-22 07:32N 46°09' W 001°15'0 0.0
2015-Mar-22 06:32N 46°09' W 001°15'0 0.0
2015-Mar-22 05:32N 46°09' W 001°15'0 0.0
2015-Mar-22 04:32N 46°09' W 001°15'0 0.0
2015-Mar-22 03:32N 46°09' W 001°15'0 0.0
2015-Mar-22 02:32N 46°09' W 001°15'0 0.0
2015-Mar-22 01:32N 46°09' W 001°15'0 0.0
2015-Mar-22 00:32N 46°09' W 001°15'0 0.0
2015-Mar-21 23:32N 46°09' W 001°15'0 0.0
2015-Mar-21 22:29N 46°09' W 001°15'0 0.0
2015-Mar-21 21:32N 46°09' W 001°15'0 0.0
2015-Mar-21 20:32N 46°09' W 001°15'0 0.0
2015-Mar-21 19:32N 46°09' W 001°15'0 0.0
2015-Mar-21 18:32N 46°09' W 001°15'0 0.0
2015-Mar-21 17:32N 46°09' W 001°15'0 0.0
2015-Mar-21 16:32N 46°09' W 001°15'0 0.0
2015-Mar-21 15:32N 46°09' W 001°15'4 3.9
2015-Mar-21 14:33N 46°06' W 001°16'1 1.2
2015-Mar-21 13:32N 46°05' W 001°17'0 0.0
2015-Mar-21 12:32N 46°05' W 001°17'16 0.3
2015-Mar-19 14:18N 46°08' W 001°40'1114.5
2015-Mar-19 13:32N 46°13' W 001°54'1614.7
2015-Mar-19 12:28N 46°22' W 002°13'4214.1
2015-Mar-19 09:27N 46°44' W 003°06'1813.4
2015-Mar-19 08:08N 46°54' W 003°26'8214.2
2015-Mar-19 02:22N 47°50' W 004°56'7112.3
2015-Mar-18 20:33N 48°53' W 005°45'  

Dump ship's entire track history